Terminal Aerodrome Forecast
Issued by NWS

Home | Current Version | Previous Version | Text Only | Print | Product List | Glossary On
Versions: 1 2 3 4 5 6 7 8 9 10 11 12 13 14 15 16 17
000
FTUS43 KPAH 192300
TAFCGI
TAF
KCGI 192322Z 2000/2024 05005KT P6SM FEW050
     FM200500 00000KT 5SM BR SKC
     FM200800 00000KT 2SM BR SKC
      TEMPO 2009/2013 1/2SM FG SCT001
     FM201300 07003KT 5SM BR SKC
     FM201500 06004KT P6SM SCT045=

USA.gov is the U.S. government's official web portal to all federal, state and local government web resources and services.